Details From CYGL - LA GRANDE RIVIERE
To CYYR - Goose Bay
Flight Number -
Tags decoded
Created
Modified
Stats Distance 616 nm / 1,142 km
Max Altitude 0 ft / 0 m
Waypoints 2
Social Downloads 0
Likes 0
Share VATSIM

Download

Looking for another format? Having issues loading an existing format? Contact us
Advertisement - Login to hide

Notes

Requested: CYGL CYYR

Route

CYGL CYYR

ID Type Via Altitude Latitude Longitude Leg Dist Tot Dist Heading (true) Name
O CYGL APT - 0 ft / 0 m 53.62537˚ -77.70412˚ - 0 nm - LA GRANDE RIVIERE
O CYYR APT - 0 ft / 0 m 53.31882˚ -60.42389˚ 616 nm 616 nm 85° / 99° Goose Bay

Altitude Profile

Advertisement - Login to hide

Weather


0- 5 10 15 20 25 30 35+ Temperature / ° C

Clouds and Precipitation
Forecast for 2018-05-22 00:00 UTC. Updated 5 hours ago

Ground ~20,000 ft ~40,000 ft Winds

CYGL

Details ICAO CYGL (YGL)
Name LA GRANDE RIVIERE
Region Canada
Timezone America/Montreal (UTC-4.0)
Stats Elevation 639 ft / 195 m (AMSL)
Location 53.625369° -77.704115°
Runways 1
Magnetic Variation 15.268° W

METAR

CYGL 220400Z 30003KT 15SM BKN150 M04/M08 A3000 RMK AC5 SLP175

Decode

TAF

TAF CYGL 212338Z 2200/2224 27010KT P6SM FEW030 FEW240 FM220400 VRB03KT P6SM -SHSN BKN060 BKN150 FM220900 01008KT P6SM OVC015 PROB30 2209/2213 BKN007 OVC015 FM221500 02010KT P6SM BKN025 FM221800 04012KT P6SM SCT025 RMK NXT FCST BY 220600Z

Decode

Departure Runways

ID Width Length Bearing (true) Bearing (mag) Surface Threshold Offset Overrun Length
13 150 ft / 46 m 6,469 ft / 1,972 m 113.03° 128.30° Asphalt 0 ft / 0 m 0 ft / 0 m
31 150 ft / 46 m 6,469 ft / 1,972 m 293.05° 308.32° Asphalt 0 ft / 0 m 0 ft / 0 m

CYYR

Details ICAO CYYR (YYR)
Name Goose Bay
Region Canada
Timezone America/Goose_Bay (UTC-3.0)
Stats Elevation 160 ft / 49 m (AMSL)
Location 53.318820° -60.423890°
Runways 2
Magnetic Variation 20.870° W

METAR

CYYR 220400Z 32011KT 15SM FEW050 FEW120 FEW230 00/M08 A2987 RMK SC1AC1CI1 SLP119

Decode

TAF

TAF CYYR 212333Z 2200/2224 06005KT P6SM FEW025 BKN040 TEMPO 2200/2203 6SM -SHRASN BR OVC020 FM220300 VRB03KT P6SM FEW020 BKN060 TEMPO 2203/2208 5SM -SHSN BKN020 OVC060 FM220800 29008KT P6SM SCT020 FM221500 26012KT 6SM -SHRA BKN030 FM222000 27012G22KT 5SM -SHRASN BR OVC030 RMK NXT FCST BY 220600Z

Decode

Destination Runways

ID Width Length Bearing (true) Bearing (mag) Surface Threshold Offset Overrun Length
08 209 ft / 64 m 11,055 ft / 3,369 m 54.70° 75.57° Asphalt 0 ft / 0 m 1,000 ft / 305 m
16 200 ft / 61 m 9,515 ft / 2,900 m 132.96° 153.83° Asphalt 0 ft / 0 m 0 ft / 0 m
26 209 ft / 64 m 11,055 ft / 3,369 m 234.73° 255.60° Asphalt 0 ft / 0 m 1,000 ft / 305 m
34 200 ft / 61 m 9,515 ft / 2,900 m 312.99° 333.86° Asphalt 0 ft / 0 m 500 ft / 152 m